In Rescue
 
Open Full Screen Window  High Contrast Mode
Wind Gusting 00 knots
05
October 19, 2019 1:51 PM EDT
Weather Information
Wind Direction
  190 °
Wind Speed
  05 kt (6 mph)
Wind Gust
  00 kt (0 mph)
Altimeter
29.93 in
Visibility
10 SM
Temperature
17° C
63° F
Dewpoint
02° C
36° F
Humidity
37%
1hr Rain Fall
00.00 in.
24hr Rain Fall
00.00 in.
Sky Condition
Clear
VFR

METAR KMRT 191751Z AUTO 19005KT 10SM CLR 17/02 A2993 RMK AO2 T01660021 10166 21011

FAA Disclaimer: The data displayed is for advisory purposes only and is not to be used for flight planning or operations.